Time;durP1;ratioP1;P1;durP2;ratioP2;P2;SDS_P1;SDS_P2;PMS_P1;PMS_P2;Temp;Humidity;BMP_temperature;BMP_pressure;BME280_temperature;BME280_humidity;BME280_pressure;Samples;Min_cycle;Max_cycle;Signal;HPM_P1;HPM_P2
2023/08/02 00:01:08;;;;;;;41.00;7.13;;;26.80;54.60;;;;;;5023299;28;20209;-84
2023/08/02 00:03:35;;;;;;;34.53;6.50;;;26.80;54.60;;;;;;5037699;28;20660;-81
2023/08/02 00:06:03;;;;;;;28.37;6.13;;;26.80;54.60;;;;;;5029933;28;20666;-82
2023/08/02 00:08:31;;;;;;;26.80;5.87;;;26.80;54.60;;;;;;5028794;28;20242;-79
2023/08/02 00:10:58;;;;;;;24.50;5.70;;;26.70;54.50;;;;;;5023572;27;20258;-83
2023/08/02 00:13:25;;;;;;;26.37;6.00;;;26.70;54.50;;;;;;5024423;28;20205;-77
2023/08/02 00:15:52;;;;;;;36.23;6.67;;;26.70;54.50;;;;;;5025501;28;20280;-77
2023/08/02 00:18:20;;;;;;;28.93;5.80;;;26.70;54.60;;;;;;5024305;28;20203;-82
2023/08/02 00:20:48;;;;;;;28.23;5.97;;;26.70;54.60;;;;;;5025167;28;21119;-81
2023/08/02 00:23:15;;;;;;;33.27;6.63;;;26.70;54.60;;;;;;5024624;28;20229;-78
2023/08/02 00:25:44;;;;;;;41.33;7.43;;;26.70;54.60;;;;;;5023558;28;20201;-78
2023/08/02 00:28:11;;;;;;;40.47;7.27;;;26.70;54.60;;;;;;5019625;28;20789;-80
2023/08/02 00:30:45;;;;;;;25.37;5.43;;;26.70;54.60;;;;;;5024820;28;20284;-77
2023/08/02 00:33:13;;;;;;;31.70;6.37;;;26.70;54.60;;;;;;5021741;28;20231;-83
2023/08/02 00:35:44;;;;;;;31.37;6.33;;;26.60;54.50;;;;;;5025052;28;20208;-83
2023/08/02 00:38:11;;;;;;;50.33;7.87;;;26.70;54.60;;;;;;5024223;28;20204;-77
2023/08/02 00:40:38;;;;;;;27.73;6.07;;;26.60;54.60;;;;;;5025142;28;20193;-84
2023/08/02 00:43:06;;;;;;;35.13;6.80;;;26.70;54.60;;;;;;5024444;28;20248;-83
2023/08/02 00:45:34;;;;;;;30.33;6.50;;;26.60;54.60;;;;;;5023939;28;20292;-78
2023/08/02 00:48:01;;;;;;;27.50;5.97;;;26.60;54.60;;;;;;5023432;28;20670;-78
2023/08/02 00:50:30;;;;;;;27.70;5.60;;;26.60;54.60;;;;;;5024678;28;20213;-82
2023/08/02 00:52:57;;;;;;;37.63;6.97;;;26.60;54.60;;;;;;5025068;28;20220;-78
2023/08/02 00:55:24;;;;;;;28.83;6.13;;;26.60;54.70;;;;;;5023303;28;20303;-77
2023/08/02 00:57:51;;;;;;;28.13;6.00;;;26.60;54.70;;;;;;5024745;28;20250;-83
2023/08/02 01:00:20;;;;;;;19.57;5.33;;;26.60;54.70;;;;;;5024118;28;20197;-79
2023/08/02 01:02:47;;;;;;;23.57;5.87;;;26.60;54.70;;;;;;5023426;28;20240;-79
2023/08/02 01:05:15;;;;;;;23.47;5.07;;;26.60;54.70;;;;;;5024579;28;20260;-78
2023/08/02 01:07:48;;;;;;;34.27;6.60;;;26.60;54.70;;;;;;5028319;28;20205;-77
2023/08/02 01:10:26;;;;;;;31.37;5.97;;;26.50;54.70;;;;;;5025092;28;20228;-76
2023/08/02 01:12:56;;;;;;;41.00;6.93;;;26.60;54.70;;;;;;5027891;27;20863;-82
2023/08/02 01:15:27;;;;;;;26.13;5.80;;;26.50;54.60;;;;;;5027937;28;20308;-76
2023/08/02 01:17:55;;;;;;;26.10;5.47;;;26.50;54.70;;;;;;5028077;28;20204;-80
2023/08/02 01:20:24;;;;;;;32.07;6.23;;;26.50;54.60;;;;;;5027716;28;20273;-81
2023/08/02 01:22:52;;;;;;;30.93;6.37;;;26.50;54.60;;;;;;5027584;28;20205;-76
2023/08/02 01:25:19;;;;;;;20.70;5.33;;;26.50;54.70;;;;;;5026375;27;20246;-81
2023/08/02 01:27:50;;;;;;;27.20;6.07;;;26.50;54.70;;;;;;5029132;28;20205;-83
2023/08/02 01:30:20;;;;;;;34.33;6.47;;;26.50;54.70;;;;;;5027613;28;20227;-77
2023/08/02 01:32:48;;;;;;;33.53;6.50;;;26.50;54.70;;;;;;5026425;28;20284;-79
2023/08/02 01:35:15;;;;;;;23.40;5.70;;;26.50;54.70;;;;;;5027666;28;20208;-75
2023/08/02 01:37:44;;;;;;;39.63;7.13;;;26.50;54.80;;;;;;5027053;28;20189;-76
2023/08/02 01:40:13;;;;;;;26.67;6.00;;;26.50;54.70;;;;;;5027237;28;20309;-75
2023/08/02 01:42:40;;;;;;;19.70;5.13;;;26.50;54.70;;;;;;5027019;28;20564;-75
2023/08/02 01:45:09;;;;;;;32.50;6.47;;;26.50;54.80;;;;;;5026811;28;20251;-75
2023/08/02 01:47:38;;;;;;;30.00;6.17;;;26.50;54.80;;;;;;5025774;28;20319;-75
2023/08/02 01:50:06;;;;;;;23.23;5.43;;;26.50;54.80;;;;;;5027132;28;20858;-76
2023/08/02 01:52:33;;;;;;;23.80;5.70;;;26.50;54.80;;;;;;5028081;28;20265;-77
2023/08/02 01:55:01;;;;;;;17.57;5.00;;;26.40;54.80;;;;;;5028869;27;20229;-77
2023/08/02 01:57:28;;;;;;;25.77;5.67;;;26.40;54.70;;;;;;5025459;28;20815;-76
2023/08/02 01:59:55;;;;;;;31.20;6.10;;;26.40;54.80;;;;;;5025739;28;20331;-76
2023/08/02 02:02:22;;;;;;;25.63;5.93;;;26.50;54.80;;;;;;5026733;27;20264;-77
2023/08/02 02:04:50;;;;;;;22.93;5.20;;;26.50;54.80;;;;;;5026754;28;20650;-79
2023/08/02 02:07:18;;;;;;;25.00;5.43;;;26.40;54.80;;;;;;5030130;28;20204;-84
2023/08/02 02:09:44;;;;;;;28.63;6.10;;;26.40;54.80;;;;;;5033126;27;20254;-79
2023/08/02 02:12:13;;;;;;;23.23;5.60;;;26.40;54.80;;;;;;5026457;28;20246;-78
2023/08/02 02:14:40;;;;;;;20.20;5.27;;;26.40;54.80;;;;;;5032377;27;20288;-79
2023/08/02 02:17:07;;;;;;;42.40;7.57;;;26.40;54.80;;;;;;5024578;28;20684;-77
2023/08/02 02:19:33;;;;;;;27.93;6.17;;;26.40;54.80;;;;;;5025373;28;20292;-77
2023/08/02 02:22:00;;;;;;;23.93;5.63;;;26.40;55.50;;;;;;5025913;28;20240;-78
2023/08/02 02:24:27;;;;;;;26.57;6.50;;;26.40;54.80;;;;;;5022197;28;20238;-77
2023/08/02 02:26:54;;;;;;;50.83;8.43;;;26.40;54.90;;;;;;5022614;27;20201;-77
2023/08/02 02:29:24;;;;;;;24.17;6.30;;;26.40;54.80;;;;;;5026202;28;20211;-77
2023/08/02 02:31:50;;;;;;;27.27;6.37;;;26.40;54.90;;;;;;5025626;28;20203;-78
2023/08/02 02:34:17;;;;;;;27.03;6.17;;;26.40;55.50;;;;;;5026597;28;20284;-77
2023/08/02 02:36:46;;;;;;;21.10;5.47;;;26.40;54.90;;;;;;5025807;27;20284;-77
2023/08/02 02:39:13;;;;;;;32.07;6.60;;;26.40;55.00;;;;;;5025188;27;20201;-77
2023/08/02 02:41:39;;;;;;;25.00;5.80;;;26.40;54.90;;;;;;5025836;28;20207;-77
2023/08/02 02:44:06;;;;;;;23.03;5.77;;;26.40;55.00;;;;;;5026089;28;20233;-77
2023/08/02 02:46:35;;;;;;;25.57;5.90;;;26.40;54.90;;;;;;5024291;28;20221;-76
2023/08/02 02:49:02;;;;;;;37.67;7.33;;;26.40;54.90;;;;;;5025617;28;20211;-77
2023/08/02 02:51:28;;;;;;;22.83;5.70;;;26.40;54.90;;;;;;5026784;28;20336;-77
2023/08/02 02:53:56;;;;;;;25.00;6.00;;;26.40;54.90;;;;;;5024573;28;20336;-77
2023/08/02 02:56:22;;;;;;;34.13;6.77;;;26.30;55.40;;;;;;5025533;28;20257;-78
2023/08/02 02:58:49;;;;;;;47.10;7.93;;;26.30;54.90;;;;;;5023808;28;20291;-77
2023/08/02 03:01:16;;;;;;;44.30;7.97;;;26.30;54.90;;;;;;5037737;28;20287;-77
2023/08/02 03:03:45;;;;;;;19.80;5.47;;;26.30;55.50;;;;;;5026024;28;20244;-76
2023/08/02 03:06:12;;;;;;;23.50;5.80;;;26.30;54.90;;;;;;5026853;28;20391;-76
2023/08/02 03:08:39;;;;;;;25.63;5.80;;;26.40;55.00;;;;;;5025866;28;20208;-78
2023/08/02 03:11:06;;;;;;;23.87;5.53;;;26.40;55.00;;;;;;5024707;28;20209;-76
2023/08/02 03:13:33;;;;;;;25.50;5.90;;;26.30;54.90;;;;;;5025033;28;20240;-77
2023/08/02 03:16:00;;;;;;;27.77;6.10;;;26.30;55.00;;;;;;5024343;28;20253;-77
2023/08/02 03:18:26;;;;;;;23.80;5.87;;;26.30;54.90;;;;;;5023057;27;20295;-77
2023/08/02 03:20:55;;;;;;;25.13;5.40;;;26.30;55.00;;;;;;5026486;27;20283;-80
2023/08/02 03:23:22;;;;;;;38.63;7.03;;;26.30;55.60;;;;;;5026224;28;20189;-83
2023/08/02 03:25:49;;;;;;;37.87;7.00;;;26.30;55.00;;;;;;5023309;28;20235;-83
2023/08/02 03:28:16;;;;;;;27.10;5.90;;;26.30;54.90;;;;;;5024897;28;20297;-80
2023/08/02 03:30:43;;;;;;;30.20;6.07;;;26.30;55.00;;;;;;5026451;28;20289;-83
2023/08/02 03:33:10;;;;;;;20.43;5.67;;;26.30;55.00;;;;;;5025182;28;20285;-84
2023/08/02 03:35:37;;;;;;;26.70;6.03;;;26.30;55.00;;;;;;5025449;28;20378;-84
2023/08/02 03:38:05;;;;;;;63.60;9.20;;;26.30;55.10;;;;;;5023345;28;20208;-82
2023/08/02 03:40:32;;;;;;;22.30;5.47;;;26.30;55.00;;;;;;5033566;27;20209;-82
2023/08/02 03:42:59;;;;;;;26.00;6.20;;;26.30;55.10;;;;;;5025030;28;20258;-83
2023/08/02 03:45:26;;;;;;;24.93;5.90;;;26.30;55.10;;;;;;5026070;28;20256;-83
2023/08/02 03:47:53;;;;;;;32.20;6.47;;;26.30;55.10;;;;;;5022917;28;20863;-83
2023/08/02 03:50:20;;;;;;;24.87;5.80;;;26.30;55.70;;;;;;5024982;27;20296;-82
2023/08/02 03:52:47;;;;;;;41.33;7.40;;;26.30;55.10;;;;;;5023209;28;20296;-80
2023/08/02 03:55:15;;;;;;;26.40;5.77;;;26.30;55.10;;;;;;5024253;28;20209;-82
2023/08/02 03:57:43;;;;;;;20.70;5.17;;;26.30;55.10;;;;;;5025854;28;20289;-80
2023/08/02 04:00:11;;;;;;;19.60;5.20;;;26.30;55.10;;;;;;5024392;27;20204;-82
2023/08/02 04:02:38;;;;;;;22.77;5.27;;;26.30;55.10;;;;;;5025685;28;20296;-82
2023/08/02 04:05:05;;;;;;;22.17;5.37;;;26.30;55.10;;;;;;5023574;28;20224;-83
2023/08/02 04:07:32;;;;;;;20.83;5.30;;;26.20;55.10;;;;;;5010734;28;20662;-82
2023/08/02 04:09:59;;;;;;;39.23;7.10;;;26.20;55.10;;;;;;5023650;28;20291;-82
2023/08/02 04:12:27;;;;;;;19.20;5.37;;;26.30;55.10;;;;;;5025341;28;20292;-79
2023/08/02 04:14:55;;;;;;;25.33;5.50;;;26.30;55.10;;;;;;5024948;27;20224;-77
2023/08/02 04:17:22;;;;;;;26.47;6.33;;;26.30;55.20;;;;;;5025282;28;20277;-78
2023/08/02 04:19:49;;;;;;;30.67;6.33;;;26.30;55.10;;;;;;5023558;28;20288;-78
2023/08/02 04:22:16;;;;;;;27.83;6.10;;;26.20;55.10;;;;;;5025158;28;20286;-77
2023/08/02 04:24:43;;;;;;;23.33;5.63;;;26.20;55.10;;;;;;5024488;28;20235;-83
2023/08/02 04:27:10;;;;;;;21.47;5.40;;;26.30;55.80;;;;;;5025251;28;20208;-82
2023/08/02 04:29:38;;;;;;;17.83;4.87;;;26.30;55.20;;;;;;5025237;28;20211;-83
2023/08/02 04:32:05;;;;;;;50.60;7.57;;;26.20;55.20;;;;;;5021797;28;20207;-81
2023/08/02 04:34:32;;;;;;;28.40;5.87;;;26.30;55.20;;;;;;5021913;28;20265;-81
2023/08/02 04:36:59;;;;;;;22.60;5.37;;;26.30;55.20;;;;;;5024435;28;20288;-80
2023/08/02 04:39:26;;;;;;;22.60;5.33;;;26.30;55.30;;;;;;5025445;28;20295;-77
2023/08/02 04:41:54;;;;;;;29.07;5.90;;;26.20;55.20;;;;;;5026085;28;20292;-77
2023/08/02 04:44:21;;;;;;;21.90;5.33;;;26.30;55.30;;;;;;5028610;28;20197;-76
2023/08/02 04:46:50;;;;;;;23.90;5.70;;;26.30;55.30;;;;;;5025399;27;20619;-82
2023/08/02 04:49:16;;;;;;;23.57;5.43;;;26.20;55.80;;;;;;5008947;28;20573;-78
2023/08/02 04:51:43;;;;;;;23.23;5.17;;;26.20;55.50;;;;;;5022663;28;20304;-80
2023/08/02 04:54:11;;;;;;;21.80;5.37;;;26.20;55.40;;;;;;5028117;28;20288;-81
2023/08/02 04:56:38;;;;;;;19.97;5.00;;;26.30;55.40;;;;;;5027812;28;20664;-78
2023/08/02 04:59:06;;;;;;;21.17;5.10;;;26.30;55.40;;;;;;5028750;28;20208;-81
2023/08/02 05:01:33;;;;;;;35.83;6.47;;;26.30;55.30;;;;;;5026899;28;20212;-83
2023/08/02 05:04:02;;;;;;;19.00;4.87;;;26.30;55.30;;;;;;5027938;27;20906;-78
2023/08/02 05:06:29;;;;;;;21.00;5.03;;;26.30;55.30;;;;;;5028715;28;20260;-78
2023/08/02 05:08:55;;;;;;;28.23;5.70;;;26.30;55.30;;;;;;5028584;28;20696;-78
2023/08/02 05:11:22;;;;;;;19.40;5.10;;;26.30;55.30;;;;;;5027306;28;20220;-83
2023/08/02 05:13:52;;;;;;;24.27;5.43;;;26.30;55.30;;;;;;5026292;28;20296;-80
2023/08/02 05:16:19;;;;;;;28.80;6.03;;;26.30;55.30;;;;;;5026405;28;20193;-82
2023/08/02 05:18:46;;;;;;;22.87;5.27;;;26.30;55.30;;;;;;5027965;27;20240;-81
2023/08/02 05:21:15;;;;;;;22.47;5.17;;;26.30;55.30;;;;;;5028018;28;20294;-83
2023/08/02 05:23:43;;;;;;;43.50;7.23;;;26.30;55.30;;;;;;5026080;28;20292;-82
2023/08/02 05:26:10;;;;;;;22.20;5.03;;;26.30;55.30;;;;;;5027884;28;20315;-79
2023/08/02 05:28:38;;;;;;;21.83;5.07;;;26.30;55.30;;;;;;5028367;28;20303;-77
2023/08/02 05:31:09;;;;;;;34.50;6.40;;;26.30;55.40;;;;;;5043854;27;20236;-76
2023/08/02 05:33:36;;;;;;;22.27;5.27;;;26.30;55.40;;;;;;5030206;27;20208;-80
2023/08/02 05:36:04;;;;;;;22.57;5.23;;;26.30;55.40;;;;;;5030837;27;20327;-82
2023/08/02 05:38:34;;;;;;;22.83;5.20;;;26.30;55.40;;;;;;5028124;28;20284;-76
2023/08/02 05:41:02;;;;;;;33.83;6.13;;;26.30;55.40;;;;;;5027009;28;20205;-76
2023/08/02 05:43:29;;;;;;;19.53;5.00;;;26.30;55.40;;;;;;5028059;28;20201;-82
2023/08/02 05:45:57;;;;;;;24.03;5.33;;;26.30;55.40;;;;;;5027060;27;20704;-77
2023/08/02 05:48:24;;;;;;;34.30;6.37;;;26.30;55.40;;;;;;5025668;28;20847;-78
2023/08/02 05:50:51;;;;;;;21.93;5.07;;;26.30;55.40;;;;;;5027534;28;20299;-79
2023/08/02 05:53:18;;;;;;;24.33;5.27;;;26.30;55.40;;;;;;5027308;28;20219;-81
2023/08/02 05:55:46;;;;;;;25.57;5.60;;;26.30;55.40;;;;;;5025547;28;20292;-77
2023/08/02 05:58:13;;;;;;;29.57;6.60;;;26.20;55.30;;;;;;5027954;28;20272;-76
2023/08/02 06:00:40;;;;;;;26.57;7.20;;;26.20;55.40;;;;;;5026282;28;20727;-77
2023/08/02 06:03:07;;;;;;;35.97;7.07;;;26.30;55.50;;;;;;5032594;28;20287;-79
2023/08/02 06:05:34;;;;;;;31.63;7.53;;;26.30;55.50;;;;;;5029954;28;20235;-74
2023/08/02 06:08:01;;;;;;;30.03;7.77;;;26.30;55.60;;;;;;5031046;27;20283;-73
2023/08/02 06:10:28;;;;;;;33.13;8.17;;;26.30;55.60;;;;;;5027334;28;20201;-72
2023/08/02 06:12:57;;;;;;;33.27;7.67;;;26.30;55.60;;;;;;5026131;28;20269;-75
2023/08/02 06:15:24;;;;;;;32.23;7.97;;;26.30;55.60;;;;;;5027378;28;20301;-75
2023/08/02 06:17:52;;;;;;;28.47;7.30;;;26.30;55.70;;;;;;5026639;28;20637;-74
2023/08/02 06:20:19;;;;;;;32.43;7.97;;;26.30;55.80;;;;;;5027506;28;20244;-72
2023/08/02 06:22:46;;;;;;;30.13;6.67;;;26.30;55.80;;;;;;5026472;28;20203;-77
2023/08/02 06:25:13;;;;;;;23.17;6.37;;;26.30;55.80;;;;;;5027552;28;20776;-76
2023/08/02 06:27:40;;;;;;;29.33;6.40;;;26.30;55.80;;;;;;5015418;28;20244;-75
2023/08/02 06:30:09;;;;;;;32.27;6.53;;;26.30;55.80;;;;;;5024067;28;20201;-75
2023/08/02 06:32:36;;;;;;;26.40;5.87;;;26.30;56.00;;;;;;5026773;28;20233;-78
2023/08/02 06:35:03;;;;;;;22.53;5.23;;;26.30;56.50;;;;;;5027169;28;20197;-81
2023/08/02 06:37:30;;;;;;;31.83;6.50;;;26.30;56.00;;;;;;5027318;28;20280;-83
2023/08/02 06:39:57;;;;;;;27.00;6.00;;;26.30;56.00;;;;;;5012127;28;20280;-80
2023/08/02 06:42:24;;;;;;;27.67;5.73;;;26.40;56.00;;;;;;5026469;28;20832;-79
2023/08/02 06:44:51;;;;;;;25.43;5.50;;;26.30;56.00;;;;;;5022615;28;20259;-76
2023/08/02 06:47:19;;;;;;;27.70;5.93;;;26.30;56.00;;;;;;5027047;28;20207;-80
2023/08/02 06:49:46;;;;;;;20.07;4.73;;;26.40;56.00;;;;;;5026884;28;20678;-77
2023/08/02 06:52:13;;;;;;;24.07;5.13;;;26.40;56.00;;;;;;5026369;28;20315;-83
2023/08/02 06:54:40;;;;;;;37.00;6.03;;;26.40;56.00;;;;;;5013060;27;20661;-81
2023/08/02 06:57:08;;;;;;;30.47;5.93;;;26.40;56.70;;;;;;5019501;28;20211;-81
2023/08/02 06:59:35;;;;;;;23.77;5.30;;;26.40;56.10;;;;;;5033105;28;20208;-80
2023/08/02 07:02:02;;;;;;;25.17;4.90;;;26.40;56.10;;;;;;5025449;28;20737;-81
2023/08/02 07:04:30;;;;;;;24.50;4.90;;;26.50;56.20;;;;;;5025650;28;20289;-80
2023/08/02 07:06:57;;;;;;;42.43;6.57;;;26.40;56.20;;;;;;5025214;28;20974;-81
2023/08/02 07:09:27;;;;;;;27.93;5.53;;;26.50;56.20;;;;;;5026152;28;20291;-80
2023/08/02 07:11:54;;;;;;;22.83;4.63;;;26.50;56.20;;;;;;5027540;28;20202;-80
2023/08/02 07:14:21;;;;;;;19.40;4.67;;;26.50;56.20;;;;;;5033027;27;20205;-80
2023/08/02 07:16:48;;;;;;;38.63;6.27;;;26.50;56.20;;;;;;5024219;27;20673;-81
2023/08/02 07:19:15;;;;;;;18.67;4.37;;;26.50;56.20;;;;;;5025729;28;20283;-81
2023/08/02 07:21:43;;;;;;;21.17;4.50;;;26.50;56.20;;;;;;5030801;27;20292;-81
2023/08/02 07:24:10;;;;;;;19.80;4.40;;;26.60;56.30;;;;;;5024382;28;20194;-82
2023/08/02 07:26:37;;;;;;;29.13;5.30;;;26.50;56.30;;;;;;5026001;27;20662;-82
2023/08/02 07:29:04;;;;;;;19.43;4.27;;;26.50;56.30;;;;;;5026455;28;20652;-82
2023/08/02 07:31:31;;;;;;;23.13;4.70;;;26.60;56.40;;;;;;5041219;28;20287;-82
2023/08/02 07:33:58;;;;;;;26.50;5.17;;;26.60;56.40;;;;;;5024721;28;20208;-81
2023/08/02 07:36:26;;;;;;;41.30;6.23;;;26.60;56.40;;;;;;5025931;28;20309;-82
2023/08/02 07:38:54;;;;;;;21.70;4.73;;;26.60;57.10;;;;;;5025673;28;20598;-81
2023/08/02 07:41:21;;;;;;;22.97;4.70;;;26.60;56.40;;;;;;5026046;28;21122;-81
2023/08/02 07:43:48;;;;;;;25.93;5.10;;;26.60;56.50;;;;;;5025759;28;20209;-81
2023/08/02 07:46:19;;;;;;;25.23;5.00;;;26.60;56.50;;;;;;5025267;28;20233;-81
2023/08/02 07:48:46;;;;;;;27.57;5.03;;;26.60;56.60;;;;;;5025176;28;20232;-81
2023/08/02 07:51:12;;;;;;;24.03;4.60;;;26.60;56.50;;;;;;5025698;28;20211;-80
2023/08/02 07:53:40;;;;;;;23.03;4.57;;;26.70;56.60;;;;;;5024065;28;20236;-81
2023/08/02 07:56:08;;;;;;;22.03;4.47;;;26.60;56.60;;;;;;5024599;28;20197;-82
2023/08/02 07:58:35;;;;;;;25.93;4.90;;;26.70;56.60;;;;;;5026518;28;20190;-81
2023/08/02 08:01:06;;;;;;;23.23;4.77;;;26.70;56.60;;;;;;5021898;28;20733;-82
2023/08/02 08:03:33;;;;;;;21.77;4.53;;;26.70;56.70;;;;;;5046254;28;20223;-80
2023/08/02 08:06:01;;;;;;;25.67;4.83;;;26.70;56.70;;;;;;5036021;28;20220;-81
2023/08/02 08:08:28;;;;;;;17.53;4.03;;;26.70;56.70;;;;;;5045869;28;20261;-80
2023/08/02 08:10:55;;;;;;;23.47;4.83;;;26.80;56.70;;;;;;5025318;28;20292;-81
2023/08/02 08:13:23;;;;;;;41.70;6.27;;;26.70;56.70;;;;;;5025879;28;20280;-81
2023/08/02 08:15:50;;;;;;;20.23;4.50;;;26.70;57.30;;;;;;5042782;27;20748;-81
2023/08/02 08:18:17;;;;;;;33.93;5.87;;;26.70;56.70;;;;;;5027119;27;20755;-81
2023/08/02 08:20:44;;;;;;;31.80;5.30;;;26.80;56.70;;;;;;5024670;28;20215;-80
2023/08/02 08:23:11;;;;;;;28.20;5.00;;;26.80;56.70;;;;;;5024835;28;20204;-81
2023/08/02 08:25:38;;;;;;;19.77;4.13;;;26.80;56.60;;;;;;5025689;28;20243;-81
2023/08/02 08:28:06;;;;;;;24.60;4.77;;;26.70;56.50;;;;;;5024767;28;20212;-81
2023/08/02 08:30:34;;;;;;;17.10;4.10;;;26.80;56.60;;;;;;5025419;28;20656;-81
2023/08/02 08:33:01;;;;;;;18.87;4.17;;;26.80;56.60;;;;;;5025185;28;20267;-80
2023/08/02 08:35:28;;;;;;;17.40;4.13;;;26.80;56.60;;;;;;5025427;28;20206;-80
2023/08/02 08:37:55;;;;;;;17.20;4.07;;;26.80;56.60;;;;;;5024601;28;20295;-81
2023/08/02 08:40:22;;;;;;;36.90;5.87;;;26.80;57.20;;;;;;5023565;28;20254;-81
2023/08/02 08:42:54;;;;;;;22.57;4.53;;;26.80;56.60;;;;;;5026064;28;20300;-81
2023/08/02 08:45:23;;;;;;;24.17;4.73;;;26.80;56.70;;;;;;5024501;28;20337;-77
2023/08/02 08:47:52;;;;;;;19.00;4.27;;;26.80;56.70;;;;;;5025018;28;20284;-79
2023/08/02 08:50:22;;;;;;;20.43;4.43;;;26.80;56.70;;;;;;5024377;28;20328;-78
2023/08/02 08:52:51;;;;;;;20.33;4.40;;;26.80;56.70;;;;;;5023558;28;20211;-78
2023/08/02 08:55:19;;;;;;;19.90;4.47;;;26.80;56.70;;;;;;5023968;28;20711;-80
2023/08/02 08:57:46;;;;;;;25.50;5.23;;;26.80;56.70;;;;;;5028078;28;20205;-82
2023/08/02 09:00:14;;;;;;;29.63;4.93;;;26.80;56.70;;;;;;5021226;28;20197;-85
2023/08/02 09:02:43;;;;;;;27.27;5.10;;;26.80;56.70;;;;;;5023680;28;20209;-80
2023/08/02 09:05:12;;;;;;;21.30;4.43;;;26.80;56.70;;;;;;5024524;28;20288;-80
2023/08/02 09:07:39;;;;;;;35.03;5.70;;;26.90;56.70;;;;;;5025134;28;20319;-80
2023/08/02 09:10:07;;;;;;;22.10;5.13;;;26.90;56.70;;;;;;5024693;28;20207;-78
2023/08/02 09:12:44;;;;;;;32.70;5.93;;;26.90;56.70;;;;;;5022971;28;20296;-78
2023/08/02 09:15:11;;;;;;;23.27;4.97;;;26.90;56.80;;;;;;5024977;28;20205;-78
2023/08/02 09:17:50;;;;;;;26.30;4.87;;;26.90;56.80;;;;;;5024298;28;21012;-78
2023/08/02 09:20:20;;;;;;;22.37;5.23;;;26.90;56.90;;;;;;5024445;28;20645;-83
2023/08/02 09:22:47;;;;;;;27.00;5.63;;;27.00;56.90;;;;;;5024280;28;20569;-80
2023/08/02 09:25:24;;;;;;;19.80;4.63;;;26.90;56.90;;;;;;5025479;28;20215;-82
2023/08/02 09:27:52;;;;;;;33.07;5.63;;;27.00;57.00;;;;;;5024317;28;20317;-76
2023/08/02 09:30:27;;;;;;;25.47;5.10;;;27.00;57.50;;;;;;5028435;28;20193;-85
2023/08/02 09:33:05;;;;;;;28.00;5.43;;;27.00;57.60;;;;;;5065785;27;20212;-76
2023/08/02 09:35:48;;;;;;;22.70;4.87;;;27.00;57.00;;;;;;5036341;27;20276;-77
2023/08/02 09:38:16;;;;;;;22.37;5.33;;;27.00;56.90;;;;;;5033421;28;20200;-76
2023/08/02 09:40:47;;;;;;;24.33;4.77;;;27.10;56.80;;;;;;5029722;28;20648;-76
2023/08/02 09:43:15;;;;;;;32.07;5.77;;;27.10;56.80;;;;;;5026877;28;20288;-76
2023/08/02 09:45:42;;;;;;;19.83;4.87;;;27.10;56.70;;;;;;5026411;28;20307;-76
2023/08/02 09:48:09;;;;;;;24.20;5.17;;;27.10;56.70;;;;;;5027691;28;20228;-77
2023/08/02 09:50:52;;;;;;;24.80;4.97;;;27.10;56.60;;;;;;5028018;28;20728;-77
2023/08/02 09:53:19;;;;;;;33.83;5.93;;;27.20;56.70;;;;;;5027860;28;20240;-77
2023/08/02 09:55:48;;;;;;;25.67;4.93;;;27.20;56.50;;;;;;5027105;28;20280;-78
2023/08/02 09:58:15;;;;;;;21.70;4.60;;;27.20;56.50;;;;;;5027469;27;20208;-78
2023/08/02 10:00:43;;;;;;;21.20;4.73;;;27.20;56.50;;;;;;5012467;28;20220;-73
2023/08/02 10:03:10;;;;;;;25.10;5.17;;;27.20;56.50;;;;;;5031120;27;20288;-77
2023/08/02 10:05:44;;;;;;;27.33;5.47;;;27.20;56.50;;;;;;5027236;28;20712;-77
2023/08/02 10:08:13;;;;;;;21.60;4.67;;;27.30;56.60;;;;;;5024453;28;20224;-75
2023/08/02 10:10:44;;;;;;;24.07;5.07;;;27.30;56.60;;;;;;5026725;28;20857;-77
2023/08/02 10:13:18;;;;;;;24.67;5.40;;;27.30;56.60;;;;;;5024030;28;20200;-75
2023/08/02 10:15:48;;;;;;;20.90;4.43;;;27.30;56.80;;;;;;5027324;27;20324;-76
2023/08/02 10:18:17;;;;;;;29.83;5.50;;;27.40;56.80;;;;;;5025002;28;20713;-75
2023/08/02 10:20:45;;;;;;;21.00;4.90;;;27.40;56.80;;;;;;5028752;28;20228;-79
2023/08/02 10:23:12;;;;;;;23.73;4.80;;;27.40;56.80;;;;;;5027550;28;20201;-80
2023/08/02 10:25:39;;;;;;;34.23;5.77;;;27.50;56.90;;;;;;5026428;28;20201;-83
2023/08/02 10:28:07;;;;;;;20.87;4.77;;;27.50;56.90;;;;;;5032754;27;20264;-80
2023/08/02 10:30:36;;;;;;;25.53;5.17;;;27.60;56.80;;;;;;5025505;27;20200;-79
2023/08/02 10:33:13;;;;;;;37.20;6.13;;;27.60;56.80;;;;;;5015826;28;20269;-84
2023/08/02 10:36:03;;;;;;;30.73;5.53;;;27.60;56.80;;;;;;5026626;28;20203;-74
2023/08/02 10:38:48;;;;;;;44.00;6.37;;;27.70;56.80;;;;;;5022139;27;20201;-81
2023/08/02 10:41:17;;;;;;;27.27;5.03;;;27.70;56.80;;;;;;5026556;27;20203;-83
2023/08/02 10:44:14;;;;;;;24.83;5.50;;;27.70;56.80;;;;;;5026631;28;20309;-83
2023/08/02 10:46:41;;;;;;;25.50;5.27;;;27.80;56.90;;;;;;5025532;28;20232;-86
2023/08/02 10:49:38;;;;;;;26.87;5.37;;;27.80;57.00;;;;;;5026730;28;20645;-83
2023/08/02 10:52:30;;;;;;;23.67;5.13;;;27.80;56.90;;;;;;5011323;28;20208;-82
2023/08/02 10:55:14;;;;;;;27.80;5.43;;;27.90;57.00;;;;;;5026146;28;20205;-87
2023/08/02 10:57:42;;;;;;;23.70;5.20;;;27.90;57.00;;;;;;5026089;28;20236;-83
2023/08/02 11:00:23;;;;;;;21.97;4.80;;;28.00;57.00;;;;;;5026192;27;20205;-82
2023/08/02 11:02:51;;;;;;;54.97;7.67;;;28.00;57.20;;;;;;5014675;28;20212;-85
2023/08/02 11:05:38;;;;;;;25.77;5.00;;;28.20;57.20;;;;;;5034589;28;20209;-83
2023/08/02 11:08:08;;;;;;;28.73;5.60;;;28.20;57.20;;;;;;5025405;28;20220;-82
2023/08/02 11:10:50;;;;;;;25.07;5.37;;;28.30;57.20;;;;;;5023201;28;20205;-74
2023/08/02 11:13:17;;;;;;;14.70;3.97;;;28.40;57.30;;;;;;5024797;28;20257;-71
2023/08/02 11:15:44;;;;;;;22.23;4.80;;;28.50;57.20;;;;;;5025173;28;20754;-72
2023/08/02 11:18:12;;;;;;;23.27;4.90;;;28.60;57.20;;;;;;5022471;27;20209;-73
2023/08/02 11:20:39;;;;;;;30.60;5.30;;;28.70;57.30;;;;;;5024829;28;20288;-72
2023/08/02 11:23:22;;;;;;;21.50;4.57;;;28.80;57.40;;;;;;5026244;28;20197;-74
2023/08/02 11:25:49;;;;;;;26.97;5.23;;;29.00;57.70;;;;;;5023207;27;20197;-84
2023/08/02 11:28:16;;;;;;;30.57;5.50;;;29.20;57.50;;;;;;5025645;28;20321;-83
2023/08/02 11:30:43;;;;;;;33.47;5.93;;;29.30;57.40;;;;;;5025347;28;20209;-78
2023/08/02 11:33:10;;;;;;;26.13;4.97;;;29.40;57.10;;;;;;5027297;28;20201;-84
2023/08/02 11:35:37;;;;;;;25.33;5.03;;;29.60;56.90;;;;;;5026098;28;20280;-82
2023/08/02 11:38:04;;;;;;;29.10;5.67;;;29.70;56.60;;;;;;5021520;28;20240;-84
2023/08/02 11:40:38;;;;;;;19.80;4.80;;;29.80;56.40;;;;;;5025842;28;20924;-82
2023/08/02 11:43:09;;;;;;;26.60;4.90;;;29.90;56.40;;;;;;5025995;28;20225;-82
2023/08/02 11:45:37;;;;;;;25.40;5.03;;;30.00;56.40;;;;;;5025774;28;20193;-74
2023/08/02 11:48:04;;;;;;;28.13;5.13;;;30.00;56.60;;;;;;5025417;28;20228;-81
2023/08/02 11:50:32;;;;;;;20.80;4.67;;;30.20;56.70;;;;;;5024602;28;20248;-77
2023/08/02 11:53:06;;;;;;;25.83;5.47;;;30.20;56.60;;;;;;5025898;28;20205;-74
2023/08/02 11:55:35;;;;;;;24.53;5.47;;;30.40;56.80;;;;;;5024036;28;20348;-76
2023/08/02 11:58:05;;;;;;;38.53;6.37;;;30.50;56.80;;;;;;5024535;28;20212;-75
2023/08/02 12:00:33;;;;;;;25.30;5.10;;;30.60;56.70;;;;;;5021858;27;20609;-73
2023/08/02 12:03:10;;;;;;;18.90;4.50;;;30.80;56.60;;;;;;5024920;28;20247;-77
2023/08/02 12:05:37;;;;;;;24.13;4.73;;;30.90;56.50;;;;;;5024786;27;20662;-74
2023/08/02 12:08:12;;;;;;;18.63;4.27;;;31.10;56.50;;;;;;5025831;28;20264;-75
2023/08/02 12:10:40;;;;;;;36.57;6.03;;;31.30;56.20;;;;;;5022024;27;20201;-79
2023/08/02 12:13:14;;;;;;;22.23;4.70;;;31.40;56.00;;;;;;5029284;28;20746;-73
2023/08/02 12:15:44;;;;;;;22.35;4.90;;;31.50;55.50;;;;;;5025749;28;20228;-76
2023/08/02 12:18:11;;;;;;;25.27;5.50;;;31.60;55.30;;;;;;5029631;27;20197;-79
2023/08/02 12:20:38;;;;;;;27.07;5.23;;;31.70;55.00;;;;;;5037985;27;20736;-74
2023/08/02 12:23:05;;;;;;;25.52;5.07;;;31.70;54.80;;;;;;5034322;27;20243;-72
2023/08/02 12:25:47;;;;;;;31.52;5.60;;;31.90;55.00;;;;;;5023484;28;20988;-73
2023/08/02 12:28:15;;;;;;;25.00;4.82;;;31.90;54.90;;;;;;5024498;28;20225;-72
2023/08/02 12:30:59;;;;;;;25.80;5.57;;;32.00;55.00;;;;;;5024239;28;20291;-73
2023/08/02 12:33:26;;;;;;;20.92;5.03;;;32.00;55.40;;;;;;5006095;28;20309;-72
2023/08/02 12:35:53;;;;;;;25.13;4.82;;;32.10;55.10;;;;;;5021163;28;20209;-72
2023/08/02 12:38:20;;;;;;;27.88;5.50;;;32.20;54.90;;;;;;5024725;28;20276;-74
2023/08/02 12:40:47;;;;;;;28.42;5.85;;;32.30;54.60;;;;;;5025098;28;20211;-75
2023/08/02 12:43:16;;;;;;;23.38;5.07;;;32.40;54.40;;;;;;5023364;28;20316;-72